Time;durP1;ratioP1;P1;durP2;ratioP2;P2;SDS_P1;SDS_P2;PMS_P1;PMS_P2;Temp;Humidity;BMP_temperature;BMP_pressure;BME280_temperature;BME280_humidity;BME280_pressure;Samples;Min_cycle;Max_cycle;Signal;HPM_P1;HPM_P2
2022/01/12 00:00:50;;;;;;;115.15;44.75;;;;;;;;;;5046460;28;20508;-86
2022/01/12 00:03:16;;;;;;;127.22;48.03;;;;;;;;;;5047750;28;20041;-86
2022/01/12 00:05:43;;;;;;;124.13;46.20;;;;;;;;;;5045969;28;20253;-86
2022/01/12 00:08:09;;;;;;;133.93;45.50;;;;;;;;;;5046692;28;20053;-85
2022/01/12 00:10:35;;;;;;;135.05;44.53;;;;;;;;;;5028155;28;20036;-85
2022/01/12 00:13:02;;;;;;;131.82;46.38;;;;;;;;;;5028558;28;20067;-85
2022/01/12 00:15:28;;;;;;;125.10;44.35;;;;;;;;;;4997459;28;20816;-84
2022/01/12 00:17:54;;;;;;;129.30;43.58;;;;;;;;;;5023811;28;20207;-86
2022/01/12 00:20:20;;;;;;;126.82;44.47;;;;;;;;;;5028807;28;20045;-85
2022/01/12 00:22:46;;;;;;;120.45;40.75;;;;;;;;;;5047283;28;20393;-84
2022/01/12 00:25:26;;;;;;;138.68;45.53;;;;;;;;;;5029626;28;20459;-84
2022/01/12 00:33:22;;;;;;;167.30;48.22;;;;;;;;;;5029562;28;20131;-85
2022/01/12 00:35:49;;;;;;;161.35;48.10;;;;;;;;;;5045349;28;20049;-85
2022/01/12 00:38:16;;;;;;;173.88;47.30;;;;;;;;;;5025722;28;20457;-85
2022/01/12 00:40:44;;;;;;;137.35;39.08;;;;;;;;;;5045222;28;20041;-85
2022/01/12 00:43:11;;;;;;;144.18;44.78;;;;;;;;;;5029892;28;20045;-85
2022/01/12 00:45:41;;;;;;;163.80;47.40;;;;;;;;;;5028485;28;20044;-86
2022/01/12 00:48:07;;;;;;;178.38;47.25;;;;;;;;;;5028208;28;20059;-85
2022/01/12 00:50:33;;;;;;;187.35;49.83;;;;;;;;;;5029113;28;20089;-84
2022/01/12 00:53:00;;;;;;;172.43;46.72;;;;;;;;;;5045154;28;20069;-84
2022/01/12 00:55:26;;;;;;;199.98;48.78;;;;;;;;;;5025677;28;20057;-85
2022/01/12 00:57:55;;;;;;;196.13;50.10;;;;;;;;;;5046364;28;20047;-84
2022/01/12 01:00:21;;;;;;;174.57;47.90;;;;;;;;;;5045576;28;20454;-84
2022/01/12 01:02:47;;;;;;;206.52;48.88;;;;;;;;;;5028717;28;20867;-85
2022/01/12 01:05:19;;;;;;;225.48;51.88;;;;;;;;;;5045226;28;20041;-84
2022/01/12 01:07:45;;;;;;;207.95;48.28;;;;;;;;;;5045425;28;20057;-85
2022/01/12 01:10:15;;;;;;;238.77;51.53;;;;;;;;;;5028962;28;20822;-84
2022/01/12 01:12:41;;;;;;;208.00;48.20;;;;;;;;;;5044589;28;20037;-84
2022/01/12 01:15:11;;;;;;;302.60;53.75;;;;;;;;;;5046216;28;20515;-84
2022/01/12 01:25:37;;;;;;;;;;;;;;;;;;5025498;28;20094;-85
2022/01/12 01:28:05;;;;;;;264.90;49.28;;;;;;;;;;5027318;28;19924;-84
2022/01/12 01:30:31;;;;;;;325.70;50.95;;;;;;;;;;5045580;28;20048;-85
2022/01/12 01:33:04;;;;;;;310.67;50.88;;;;;;;;;;5026666;28;20091;-86
2022/01/12 01:35:31;;;;;;;341.17;53.42;;;;;;;;;;5044134;28;20033;-86
2022/01/12 01:38:02;;;;;;;325.30;47.63;;;;;;;;;;5044425;28;20055;-83
2022/01/12 01:40:28;;;;;;;261.45;50.30;;;;;;;;;;5025945;28;20033;-85
2022/01/12 01:54:07;;;;;;;317.08;47.90;;;;;;;;;;4956718;28;20518;-84
2022/01/12 01:56:33;;;;;;;356.63;55.63;;;;;;;;;;5008440;28;20053;-85
2022/01/12 01:58:59;;;;;;;306.60;49.55;;;;;;;;;;5011092;28;20068;-84
2022/01/12 02:01:25;;;;;;;327.10;52.13;;;;;;;;;;5045380;28;20090;-84
2022/01/12 02:03:54;;;;;;;415.92;53.28;;;;;;;;;;5023664;28;20037;-84
2022/01/12 02:06:20;;;;;;;363.20;49.72;;;;;;;;;;5040868;28;20056;-85
2022/01/12 02:08:46;;;;;;;394.83;56.58;;;;;;;;;;5027803;28;20515;-84
2022/01/12 02:11:12;;;;;;;348.90;48.80;;;;;;;;;;5027792;28;20041;-84
2022/01/12 02:13:38;;;;;;;377.33;49.65;;;;;;;;;;5028511;28;20048;-84
2022/01/12 02:16:04;;;;;;;381.98;52.00;;;;;;;;;;5044999;28;20037;-84
2022/01/12 02:40:37;;;;;;;166.82;42.38;;;;;;;;;;4993924;28;20037;-84
2022/01/12 02:53:41;;;;;;;151.05;39.60;;;;;;;;;;5025920;28;20045;-84
2022/01/12 02:56:15;;;;;;;138.88;40.05;;;;;;;;;;5043962;28;20098;-84
2022/01/12 02:58:43;;;;;;;153.90;41.58;;;;;;;;;;5039662;28;20049;-84
2022/01/12 03:03:56;;;;;;;154.25;36.55;;;;;;;;;;5041615;28;20132;-84
2022/01/12 03:06:27;;;;;;;417.17;41.65;;;;;;;;;;5027134;28;20033;-84
2022/01/12 03:08:55;;;;;;;601.67;43.33;;;;;;;;;;5041802;28;20045;-84
2022/01/12 03:11:23;;;;;;;702.40;37.55;;;;;;;;;;5037682;28;20478;-84
2022/01/12 03:13:49;;;;;;;643.50;37.40;;;;;;;;;;5045820;28;20516;-84
2022/01/12 03:16:21;;;;;;;368.92;33.20;;;;;;;;;;5010783;28;20077;-84
2022/01/12 03:18:51;;;;;;;350.45;34.55;;;;;;;;;;5027750;28;20053;-83
2022/01/12 03:21:19;;;;;;;165.15;32.92;;;;;;;;;;5044812;28;20064;-84
2022/01/12 03:23:45;;;;;;;106.38;31.65;;;;;;;;;;5027604;28;20091;-84
2022/01/12 03:26:11;;;;;;;128.75;34.90;;;;;;;;;;5044188;28;20049;-84
2022/01/12 03:28:39;;;;;;;121.43;33.00;;;;;;;;;;5043230;28;20115;-85
2022/01/12 03:31:10;;;;;;;119.65;33.78;;;;;;;;;;5026679;28;20055;-84
2022/01/12 03:33:53;;;;;;;113.28;31.17;;;;;;;;;;5027744;28;20102;-84
2022/01/12 03:38:49;;;;;;;95.15;30.35;;;;;;;;;;5041279;28;20397;-84
2022/01/12 03:41:15;;;;;;;117.05;34.20;;;;;;;;;;5024187;28;20041;-84
2022/01/12 03:43:42;;;;;;;130.80;33.50;;;;;;;;;;5044806;28;20068;-84
2022/01/12 03:46:08;;;;;;;123.40;33.35;;;;;;;;;;5038697;28;20509;-84
2022/01/12 03:48:34;;;;;;;122.70;33.92;;;;;;;;;;5043136;28;20048;-84
2022/01/12 03:51:00;;;;;;;141.68;34.60;;;;;;;;;;5042885;28;20049;-84
2022/01/12 03:53:26;;;;;;;126.35;34.25;;;;;;;;;;5026308;28;20049;-83
2022/01/12 03:55:52;;;;;;;119.95;33.97;;;;;;;;;;5026728;28;20092;-84
2022/01/12 03:58:18;;;;;;;131.55;33.65;;;;;;;;;;5043448;28;20097;-84
2022/01/12 04:00:44;;;;;;;119.10;33.90;;;;;;;;;;5047587;28;20116;-84
2022/01/12 04:03:12;;;;;;;128.98;34.20;;;;;;;;;;5028643;28;20048;-83
2022/01/12 04:08:24;;;;;;;115.15;32.90;;;;;;;;;;5029509;28;20057;-84
2022/01/12 04:10:51;;;;;;;140.80;34.63;;;;;;;;;;5026762;28;20065;-84
2022/01/12 04:13:17;;;;;;;121.38;34.03;;;;;;;;;;5029013;28;20041;-84
2022/01/12 04:15:45;;;;;;;124.18;32.35;;;;;;;;;;5046675;28;20041;-84
2022/01/12 04:18:11;;;;;;;136.45;34.75;;;;;;;;;;5028759;28;20040;-84
2022/01/12 04:20:46;;;;;;;286.13;35.67;;;;;;;;;;5047422;28;20107;-84
2022/01/12 04:23:19;;;;;;;358.83;37.70;;;;;;;;;;5046490;28;20076;-84
2022/01/12 04:25:49;;;;;;;665.72;44.60;;;;;;;;;;5047322;28;20052;-84
2022/01/12 04:28:16;;;;;;;761.10;43.33;;;;;;;;;;5029962;28;20048;-84
2022/01/12 04:30:42;;;;;;;682.25;39.10;;;;;;;;;;5046343;28;20068;-85
2022/01/12 04:33:09;;;;;;;459.67;34.60;;;;;;;;;;5046218;28;20029;-84
2022/01/12 04:35:46;;;;;;;580.60;40.53;;;;;;;;;;5045886;28;20114;-84
2022/01/12 04:38:12;;;;;;;442.80;34.65;;;;;;;;;;5045804;28;20492;-84
2022/01/12 04:40:38;;;;;;;462.80;31.95;;;;;;;;;;5028898;28;20508;-84
2022/01/12 04:43:05;;;;;;;372.27;30.00;;;;;;;;;;5046073;28;20044;-84
2022/01/12 04:48:01;;;;;;;238.68;24.77;;;;;;;;;;5046375;28;20056;-84
2022/01/12 04:50:28;;;;;;;310.52;26.88;;;;;;;;;;5046402;28;20049;-85
2022/01/12 04:52:55;;;;;;;323.83;26.60;;;;;;;;;;5009055;28;20057;-83
2022/01/12 04:55:21;;;;;;;297.90;25.77;;;;;;;;;;5045749;28;20032;-85
2022/01/12 04:57:47;;;;;;;307.70;25.50;;;;;;;;;;5046298;28;20345;-85
2022/01/12 05:00:16;;;;;;;280.63;22.33;;;;;;;;;;5011272;28;20032;-84
2022/01/12 05:08:48;;;;;;;308.77;22.90;;;;;;;;;;5044776;28;20085;-83
2022/01/12 05:14:03;;;;;;;263.50;23.05;;;;;;;;;;5026303;28;20056;-84
2022/01/12 05:16:29;;;;;;;265.02;22.65;;;;;;;;;;5046171;28;20041;-84
2022/01/12 05:18:56;;;;;;;187.32;21.35;;;;;;;;;;5027093;28;20155;-84
2022/01/12 05:21:24;;;;;;;155.32;19.88;;;;;;;;;;5044645;28;20585;-85
2022/01/12 05:23:50;;;;;;;116.47;19.90;;;;;;;;;;5026635;28;20086;-84
2022/01/12 05:26:16;;;;;;;170.50;19.67;;;;;;;;;;5044447;28;20132;-85
2022/01/12 05:28:42;;;;;;;116.35;20.70;;;;;;;;;;5042162;28;20037;-85
2022/01/12 05:31:10;;;;;;;90.95;19.23;;;;;;;;;;5044624;28;20156;-85
2022/01/12 05:33:37;;;;;;;74.05;19.08;;;;;;;;;;5026667;28;20049;-86
2022/01/12 05:36:06;;;;;;;167.52;23.40;;;;;;;;;;5026659;28;20095;-85
2022/01/12 05:38:32;;;;;;;116.18;20.60;;;;;;;;;;5026590;28;20070;-85
2022/01/12 05:41:00;;;;;;;126.70;19.48;;;;;;;;;;5044914;28;20044;-85
2022/01/12 05:43:29;;;;;;;154.43;20.40;;;;;;;;;;5026656;28;20115;-85
2022/01/12 05:45:56;;;;;;;187.02;21.73;;;;;;;;;;5024350;28;20040;-84
2022/01/12 05:51:07;;;;;;;234.48;19.90;;;;;;;;;;5025604;28;20147;-86
2022/01/12 05:53:33;;;;;;;310.58;23.98;;;;;;;;;;5042087;28;20053;-86
2022/01/12 05:56:00;;;;;;;222.75;25.38;;;;;;;;;;5045256;28;20546;-86
2022/01/12 05:58:27;;;;;;;265.50;21.83;;;;;;;;;;5029312;28;20040;-82
2022/01/12 06:00:53;;;;;;;229.00;21.25;;;;;;;;;;5045388;28;20049;-83
2022/01/12 06:03:19;;;;;;;263.80;19.52;;;;;;;;;;5043992;28;20128;-82
2022/01/12 06:05:46;;;;;;;426.63;23.23;;;;;;;;;;5020688;28;20041;-82
2022/01/12 06:08:12;;;;;;;380.73;21.45;;;;;;;;;;5041827;28;20080;-83
2022/01/12 06:10:38;;;;;;;358.40;20.73;;;;;;;;;;5044640;28;20037;-84
2022/01/12 06:13:04;;;;;;;380.13;23.38;;;;;;;;;;5028020;28;20436;-82
2022/01/12 06:15:30;;;;;;;398.60;25.00;;;;;;;;;;5044930;28;20076;-82
2022/01/12 06:17:57;;;;;;;318.70;20.67;;;;;;;;;;5042274;28;20040;-82
2022/01/12 06:20:23;;;;;;;326.55;20.60;;;;;;;;;;5025941;28;20128;-83
2022/01/12 06:22:49;;;;;;;238.52;19.33;;;;;;;;;;5025038;28;20036;-84
2022/01/12 06:25:16;;;;;;;211.07;19.45;;;;;;;;;;5026204;28;20098;-82
2022/01/12 06:28:20;;;;;;;212.63;18.58;;;;;;;;;;5025000;28;20131;-83
2022/01/12 06:33:25;;;;;;;;;;;;;;;;;;5024072;28;20056;-83
2022/01/12 06:35:52;;;;;;;218.20;20.58;;;;;;;;;;5025351;28;19928;-82
2022/01/12 06:38:18;;;;;;;362.38;21.17;;;;;;;;;;5044019;28;20072;-84
2022/01/12 06:40:44;;;;;;;292.00;21.65;;;;;;;;;;5025231;28;20492;-83
2022/01/12 06:43:10;;;;;;;295.15;22.05;;;;;;;;;;5043952;28;20139;-84
2022/01/12 06:45:36;;;;;;;297.45;20.33;;;;;;;;;;5022656;28;20122;-82
2022/01/12 06:48:02;;;;;;;305.98;21.42;;;;;;;;;;5044052;28;20080;-82
2022/01/12 06:50:28;;;;;;;189.13;18.30;;;;;;;;;;5043317;28;20079;-82
2022/01/12 06:52:54;;;;;;;167.50;18.95;;;;;;;;;;5043598;28;20071;-83
2022/01/12 06:55:20;;;;;;;295.25;24.45;;;;;;;;;;5025190;28;20139;-84
2022/01/12 06:57:47;;;;;;;172.93;16.42;;;;;;;;;;5025671;28;20067;-83
2022/01/12 07:00:13;;;;;;;103.75;15.70;;;;;;;;;;5025498;28;20575;-83
2022/01/12 07:02:39;;;;;;;124.65;16.00;;;;;;;;;;5022946;28;20040;-83
2022/01/12 07:05:05;;;;;;;211.45;19.20;;;;;;;;;;5043922;28;20040;-83
2022/01/12 07:07:31;;;;;;;59.03;14.52;;;;;;;;;;5025357;28;20412;-83
2022/01/12 07:09:57;;;;;;;86.93;15.25;;;;;;;;;;5043797;28;20123;-83
2022/01/12 07:12:23;;;;;;;87.47;13.80;;;;;;;;;;5043432;28;20128;-83
2022/01/12 07:14:49;;;;;;;143.40;16.73;;;;;;;;;;5025834;28;20037;-82
2022/01/12 07:17:15;;;;;;;78.60;17.08;;;;;;;;;;5043249;28;20035;-84
2022/01/12 07:19:41;;;;;;;124.20;16.90;;;;;;;;;;5024981;28;20041;-83
2022/01/12 07:22:08;;;;;;;65.20;13.52;;;;;;;;;;5025679;28;20040;-84
2022/01/12 07:24:34;;;;;;;100.30;14.68;;;;;;;;;;5025356;28;20506;-82
2022/01/12 07:27:00;;;;;;;49.50;16.08;;;;;;;;;;5043198;28;20053;-83
2022/01/12 07:29:26;;;;;;;63.85;16.80;;;;;;;;;;5041708;28;20041;-83
2022/01/12 07:31:52;;;;;;;89.05;15.70;;;;;;;;;;5026232;28;20126;-82
2022/01/12 07:34:18;;;;;;;92.57;14.73;;;;;;;;;;5047206;28;20049;-83
2022/01/12 07:36:44;;;;;;;82.38;13.27;;;;;;;;;;5030028;28;20029;-82
2022/01/12 07:39:10;;;;;;;47.92;11.50;;;;;;;;;;5031329;28;20045;-82
2022/01/12 07:41:36;;;;;;;25.88;10.93;;;;;;;;;;5014160;28;20508;-82
2022/01/12 07:44:03;;;;;;;48.17;12.27;;;;;;;;;;5030843;28;20045;-83
2022/01/12 07:46:29;;;;;;;33.33;10.57;;;;;;;;;;5028631;28;20307;-83
2022/01/12 07:48:55;;;;;;;52.47;11.25;;;;;;;;;;5029974;28;20392;-82
2022/01/12 07:51:21;;;;;;;60.13;11.27;;;;;;;;;;5029521;28;20041;-82
2022/01/12 07:53:47;;;;;;;59.72;12.40;;;;;;;;;;5013119;28;20044;-81
2022/01/12 07:56:13;;;;;;;41.72;11.57;;;;;;;;;;5047507;28;20160;-82
2022/01/12 07:58:39;;;;;;;50.15;11.90;;;;;;;;;;5048442;28;20143;-82
2022/01/12 08:01:06;;;;;;;52.42;11.65;;;;;;;;;;5052501;28;20319;-83
2022/01/12 08:03:32;;;;;;;63.78;12.50;;;;;;;;;;5029672;28;20084;-82
2022/01/12 08:05:59;;;;;;;93.55;14.80;;;;;;;;;;5030212;28;20044;-82
2022/01/12 08:08:25;;;;;;;118.18;12.52;;;;;;;;;;5047017;28;20648;-82
2022/01/12 08:10:51;;;;;;;91.15;14.10;;;;;;;;;;5029400;28;20106;-82
2022/01/12 08:13:17;;;;;;;81.13;12.48;;;;;;;;;;5046647;28;20045;-82
2022/01/12 08:15:43;;;;;;;132.75;13.80;;;;;;;;;;5027846;28;20119;-82
2022/01/12 08:18:09;;;;;;;113.80;12.73;;;;;;;;;;5047852;28;20107;-83
2022/01/12 08:20:35;;;;;;;82.97;12.07;;;;;;;;;;5029802;28;20037;-82
2022/01/12 08:23:01;;;;;;;71.80;11.18;;;;;;;;;;5014259;28;20041;-82
2022/01/12 08:25:27;;;;;;;60.13;10.30;;;;;;;;;;5048028;28;20135;-82
2022/01/12 08:27:53;;;;;;;39.08;10.60;;;;;;;;;;5047296;28;20515;-83
2022/01/12 08:30:27;;;;;;;81.82;11.55;;;;;;;;;;5040205;28;20500;-83
2022/01/12 08:32:53;;;;;;;63.97;10.55;;;;;;;;;;5028123;28;20041;-81
2022/01/12 08:35:20;;;;;;;73.15;13.05;;;;;;;;;;5049509;28;20090;-83
2022/01/12 08:37:46;;;;;;;153.27;12.27;;;;;;;;;;5013987;28;20064;-82
2022/01/12 08:40:14;;;;;;;39.28;11.02;;;;;;;;;;5011011;28;20049;-82
2022/01/12 08:42:40;;;;;;;52.08;9.07;;;;;;;;;;5029207;28;20037;-82
2022/01/12 08:45:07;;;;;;;74.22;9.00;;;;;;;;;;5046526;28;20044;-83
2022/01/12 08:47:33;;;;;;;128.07;12.38;;;;;;;;;;5044069;28;20037;-82
2022/01/12 08:49:59;;;;;;;105.25;9.93;;;;;;;;;;5047470;28;20041;-82
2022/01/12 08:52:25;;;;;;;71.32;10.52;;;;;;;;;;5044844;28;20041;-83
2022/01/12 08:54:52;;;;;;;122.53;11.32;;;;;;;;;;5027921;28;20040;-83
2022/01/12 08:57:18;;;;;;;83.28;10.70;;;;;;;;;;5045901;28;20049;-83
2022/01/12 08:59:44;;;;;;;76.03;10.07;;;;;;;;;;5029362;28;20045;-83
2022/01/12 09:02:13;;;;;;;92.60;11.35;;;;;;;;;;5048893;28;20049;-81
2022/01/12 09:04:39;;;;;;;79.90;9.85;;;;;;;;;;5028505;28;20043;-82
2022/01/12 09:07:05;;;;;;;56.78;10.15;;;;;;;;;;5028409;28;20142;-82
2022/01/12 09:09:31;;;;;;;50.92;9.43;;;;;;;;;;5047233;28;20041;-83
2022/01/12 09:11:58;;;;;;;45.30;12.07;;;;;;;;;;5012235;28;20041;-83
2022/01/12 09:14:24;;;;;;;50.92;10.80;;;;;;;;;;5047002;28;20108;-82
2022/01/12 09:16:54;;;;;;;42.13;11.00;;;;;;;;;;5046116;28;20056;-82
2022/01/12 09:19:21;;;;;;;84.70;12.77;;;;;;;;;;5045514;28;20053;-81
2022/01/12 09:21:47;;;;;;;65.68;12.60;;;;;;;;;;5046082;28;20351;-83
2022/01/12 09:24:14;;;;;;;69.15;11.88;;;;;;;;;;5025228;28;20041;-82
2022/01/12 09:26:40;;;;;;;40.03;10.05;;;;;;;;;;5028463;28;20059;-82
2022/01/12 09:29:06;;;;;;;109.82;13.00;;;;;;;;;;5027824;28;20049;-82
2022/01/12 09:31:32;;;;;;;72.90;11.10;;;;;;;;;;5012181;28;20053;-82
2022/01/12 09:33:58;;;;;;;53.08;9.15;;;;;;;;;;5045876;28;20080;-83
2022/01/12 09:36:24;;;;;;;106.78;12.90;;;;;;;;;;5046496;28;20044;-83
2022/01/12 09:38:51;;;;;;;31.60;9.73;;;;;;;;;;5028236;28;20029;-82
2022/01/12 09:41:17;;;;;;;69.63;13.43;;;;;;;;;;5028957;28;20048;-82
2022/01/12 09:43:44;;;;;;;57.75;11.10;;;;;;;;;;5028542;28;20136;-82
2022/01/12 09:46:11;;;;;;;54.75;11.18;;;;;;;;;;5041430;28;20037;-82
2022/01/12 09:48:37;;;;;;;34.78;10.75;;;;;;;;;;5045156;28;20051;-83
2022/01/12 09:51:04;;;;;;;54.70;11.15;;;;;;;;;;5045999;28;20073;-82
2022/01/12 09:53:31;;;;;;;63.95;13.50;;;;;;;;;;5045697;28;20045;-82
2022/01/12 09:55:58;;;;;;;124.63;14.00;;;;;;;;;;5026435;28;20055;-82
2022/01/12 09:58:24;;;;;;;25.90;9.32;;;;;;;;;;5045428;28;20064;-82
2022/01/12 10:01:00;;;;;;;65.95;10.80;;;;;;;;;;5028177;28;20102;-82
2022/01/12 10:03:27;;;;;;;45.30;11.30;;;;;;;;;;5044719;28;20089;-83
2022/01/12 10:05:53;;;;;;;56.65;10.75;;;;;;;;;;5028032;28;20052;-82
2022/01/12 10:08:19;;;;;;;153.70;15.10;;;;;;;;;;5027702;28;20102;-82
2022/01/12 10:11:05;;;;;;;48.35;11.13;;;;;;;;;;5027142;28;20032;-81
2022/01/12 10:13:31;;;;;;;32.33;8.48;;;;;;;;;;5043119;28;20124;-81
2022/01/12 10:15:57;;;;;;;86.47;14.80;;;;;;;;;;5045738;28;20107;-81
2022/01/12 10:18:24;;;;;;;106.00;13.20;;;;;;;;;;5023446;28;20396;-81
2022/01/12 10:20:50;;;;;;;133.57;13.68;;;;;;;;;;5045494;28;20086;-81
2022/01/12 10:23:21;;;;;;;100.47;12.48;;;;;;;;;;5025880;28;20636;-80
2022/01/12 10:25:48;;;;;;;79.32;14.82;;;;;;;;;;5042404;28;20108;-81
2022/01/12 10:28:19;;;;;;;51.20;12.20;;;;;;;;;;5042588;28;20392;-81
2022/01/12 10:30:52;;;;;;;62.28;12.32;;;;;;;;;;5000888;28;20044;-82
2022/01/12 10:33:19;;;;;;;51.63;11.82;;;;;;;;;;5034329;28;20053;-81
2022/01/12 10:35:54;;;;;;;118.78;13.43;;;;;;;;;;5038002;28;20034;-82
2022/01/12 10:38:21;;;;;;;66.15;11.70;;;;;;;;;;5040431;28;20056;-82
2022/01/12 10:40:49;;;;;;;64.00;12.57;;;;;;;;;;5022154;28;20041;-81
2022/01/12 10:43:33;;;;;;;62.22;12.65;;;;;;;;;;5037571;28;20045;-81
2022/01/12 10:46:04;;;;;;;32.35;11.48;;;;;;;;;;5037117;28;20049;-82
2022/01/12 10:48:46;;;;;;;36.75;12.90;;;;;;;;;;5036290;28;20040;-82
2022/01/12 10:51:16;;;;;;;68.13;15.55;;;;;;;;;;5030443;28;20060;-82
2022/01/12 10:53:43;;;;;;;92.82;17.13;;;;;;;;;;5034368;28;20052;-81
2022/01/12 10:56:10;;;;;;;73.45;15.50;;;;;;;;;;5017597;28;20127;-82
2022/01/12 10:58:38;;;;;;;52.80;13.90;;;;;;;;;;5046358;28;20564;-82
2022/01/12 11:01:04;;;;;;;99.22;16.63;;;;;;;;;;5038700;28;20061;-81
2022/01/12 11:03:31;;;;;;;58.90;14.68;;;;;;;;;;5030209;28;20451;-81
2022/01/12 11:06:00;;;;;;;104.60;17.17;;;;;;;;;;5009087;28;20088;-81
2022/01/12 11:08:27;;;;;;;81.60;15.98;;;;;;;;;;5044431;28;20045;-81
2022/01/12 11:10:54;;;;;;;40.85;13.52;;;;;;;;;;5049041;28;20045;-82
2022/01/12 11:13:20;;;;;;;47.35;14.48;;;;;;;;;;5047867;28;20045;-82
2022/01/12 11:15:46;;;;;;;79.53;15.85;;;;;;;;;;5048615;28;20041;-82
2022/01/12 11:18:13;;;;;;;85.57;16.77;;;;;;;;;;5028250;28;20072;-82
2022/01/12 11:20:41;;;;;;;64.88;16.15;;;;;;;;;;5045596;28;20527;-81
2022/01/12 11:23:12;;;;;;;51.95;14.43;;;;;;;;;;5028601;28;20558;-82
2022/01/12 11:25:38;;;;;;;50.75;16.08;;;;;;;;;;5030630;28;20041;-82
2022/01/12 11:28:07;;;;;;;33.05;11.63;;;;;;;;;;5047210;28;20426;-82
2022/01/12 11:30:34;;;;;;;50.25;14.18;;;;;;;;;;5030701;28;20137;-82
2022/01/12 11:33:07;;;;;;;51.97;13.60;;;;;;;;;;5048536;28;20082;-81
2022/01/12 11:35:36;;;;;;;72.47;15.10;;;;;;;;;;5050222;28;20033;-81
2022/01/12 11:38:02;;;;;;;86.18;18.02;;;;;;;;;;5028803;28;20408;-82
2022/01/12 11:40:35;;;;;;;66.55;15.80;;;;;;;;;;5046281;28;20058;-82
2022/01/12 11:43:02;;;;;;;89.95;15.95;;;;;;;;;;5045477;28;20048;-82
2022/01/12 11:45:28;;;;;;;80.88;17.83;;;;;;;;;;5029341;28;20056;-81
2022/01/12 11:47:54;;;;;;;76.95;17.17;;;;;;;;;;5047320;28;20416;-81
2022/01/12 11:50:20;;;;;;;67.78;16.67;;;;;;;;;;5013574;28;20120;-81
2022/01/12 11:52:47;;;;;;;65.10;16.85;;;;;;;;;;5047645;28;20484;-81
2022/01/12 11:55:14;;;;;;;67.25;19.60;;;;;;;;;;5047746;28;20049;-81
2022/01/12 11:57:42;;;;;;;46.72;16.98;;;;;;;;;;5047913;28;20049;-81
2022/01/12 12:00:17;;;;;;;74.15;19.75;;;;;;;;;;5014693;28;20071;-81
2022/01/12 12:02:46;;;;;;;57.70;20.58;;;;;;;;;;5013568;28;20438;-81
2022/01/12 12:05:31;;;;;;;40.55;15.43;;;;;;;;;;5047460;28;20052;-81
2022/01/12 12:08:02;;;;;;;47.90;19.63;;;;;;;;;;5012168;28;20049;-80
2022/01/12 12:10:29;;;;;;;47.55;18.25;;;;;;;;;;5047773;28;20052;-80
2022/01/12 12:12:55;;;;;;;59.08;19.20;;;;;;;;;;5048825;28;20063;-82
2022/01/12 12:15:25;;;;;;;50.10;20.65;;;;;;;;;;5047112;28;20047;-80
2022/01/12 12:17:52;;;;;;;54.35;20.23;;;;;;;;;;5048481;28;20033;-81
2022/01/12 12:20:19;;;;;;;58.45;20.73;;;;;;;;;;5026825;28;20382;-81
2022/01/12 12:22:46;;;;;;;46.30;20.00;;;;;;;;;;5047982;28;20033;-81
2022/01/12 12:25:14;;;;;;;50.00;19.35;;;;;;;;;;5047726;28;20087;-81
2022/01/12 12:27:41;;;;;;;38.85;15.73;;;;;;;;;;5047024;28;20435;-81
2022/01/12 12:30:09;;;;;;;49.78;16.67;;;;;;;;;;5028556;28;20102;-81
2022/01/12 12:32:41;;;;;;;52.85;17.35;;;;;;;;;;5046879;28;20069;-82
2022/01/12 12:35:09;;;;;;;44.13;15.85;;;;;;;;;;5046812;28;20033;-82
2022/01/12 12:37:43;;;;;;;51.80;15.38;;;;;;;;;;5046332;28;20067;-81
2022/01/12 12:40:14;;;;;;;68.00;17.00;;;;;;;;;;5047256;28;20037;-82
2022/01/12 12:42:40;;;;;;;48.22;16.20;;;;;;;;;;5029780;28;20041;-81
2022/01/12 12:45:07;;;;;;;65.63;16.17;;;;;;;;;;5027649;28;20073;-81
2022/01/12 12:47:33;;;;;;;52.60;17.38;;;;;;;;;;5030631;28;20059;-81
2022/01/12 12:50:02;;;;;;;82.20;17.20;;;;;;;;;;5028240;28;20114;-80
2022/01/12 12:52:29;;;;;;;64.72;18.27;;;;;;;;;;5029419;28;20095;-80
2022/01/12 12:54:59;;;;;;;82.00;17.65;;;;;;;;;;5028463;28;20068;-81
2022/01/12 12:57:26;;;;;;;68.00;17.05;;;;;;;;;;5031886;28;20044;-80
2022/01/12 13:00:05;;;;;;;55.50;17.85;;;;;;;;;;5058175;28;20509;-81
2022/01/12 13:02:34;;;;;;;55.97;16.48;;;;;;;;;;5057227;28;20036;-80
2022/01/12 13:05:08;;;;;;;73.50;19.40;;;;;;;;;;5057778;28;20041;-80
2022/01/12 13:07:38;;;;;;;54.07;17.37;;;;;;;;;;5039911;28;20041;-81
2022/01/12 13:10:10;;;;;;;67.72;18.20;;;;;;;;;;5055478;28;20314;-80
2022/01/12 13:12:40;;;;;;;72.43;19.30;;;;;;;;;;5057352;28;20045;-80
2022/01/12 13:15:08;;;;;;;47.97;16.63;;;;;;;;;;5052961;28;20056;-80
2022/01/12 13:17:37;;;;;;;50.13;17.48;;;;;;;;;;5038081;28;20073;-81
2022/01/12 13:22:29;;;;;;;52.85;17.45;;;;;;;;;;5027607;28;20082;-81
2022/01/12 13:24:56;;;;;;;54.75;16.85;;;;;;;;;;5028441;28;20044;-82
2022/01/12 13:27:24;;;;;;;57.30;18.75;;;;;;;;;;5028960;28;20037;-82
2022/01/12 13:29:51;;;;;;;23.73;11.02;;;;;;;;;;5019546;28;20045;-81
2022/01/12 13:32:17;;;;;;;50.17;17.85;;;;;;;;;;5023072;28;20084;-82
2022/01/12 13:35:03;;;;;;;45.88;18.33;;;;;;;;;;5017749;28;20032;-81
2022/01/12 13:37:31;;;;;;;46.90;18.10;;;;;;;;;;5043711;28;20200;-81
2022/01/12 13:40:07;;;;;;;45.53;14.35;;;;;;;;;;5046320;28;20113;-82
2022/01/12 13:42:36;;;;;;;53.25;17.38;;;;;;;;;;5046088;28;20121;-82
2022/01/12 13:45:08;;;;;;;48.47;17.35;;;;;;;;;;5027555;28;20067;-81
2022/01/12 13:47:36;;;;;;;54.70;19.30;;;;;;;;;;5044892;28;20060;-81
2022/01/12 13:50:03;;;;;;;45.13;17.80;;;;;;;;;;5026968;28;20045;-81
2022/01/12 13:52:29;;;;;;;45.45;15.85;;;;;;;;;;5045191;28;20044;-82
2022/01/12 13:55:07;;;;;;;40.90;17.83;;;;;;;;;;5045632;28;20134;-81
2022/01/12 13:57:33;;;;;;;49.42;17.98;;;;;;;;;;5044130;28;20500;-82
2022/01/12 13:59:59;;;;;;;48.13;16.13;;;;;;;;;;5045070;28;20064;-81
2022/01/12 14:02:28;;;;;;;49.83;18.02;;;;;;;;;;5045547;28;20041;-82
2022/01/12 14:05:05;;;;;;;44.58;17.60;;;;;;;;;;5045246;28;20073;-83
2022/01/12 14:07:36;;;;;;;55.13;18.15;;;;;;;;;;5043937;28;20049;-82
2022/01/12 14:10:04;;;;;;;55.40;18.95;;;;;;;;;;5045881;28;20053;-80
2022/01/12 14:12:30;;;;;;;55.58;19.08;;;;;;;;;;5025704;28;20042;-82
2022/01/12 14:14:57;;;;;;;49.58;19.13;;;;;;;;;;5027771;28;20087;-83
2022/01/12 14:17:29;;;;;;;50.63;20.80;;;;;;;;;;5044912;28;20040;-81
2022/01/12 14:19:58;;;;;;;45.80;16.92;;;;;;;;;;5044278;28;20139;-82
2022/01/12 14:22:25;;;;;;;53.00;17.00;;;;;;;;;;5044406;28;20060;-81
2022/01/12 14:24:59;;;;;;;48.47;17.77;;;;;;;;;;5026335;28;20041;-82
2022/01/12 14:27:25;;;;;;;49.93;18.33;;;;;;;;;;5026451;28;20036;-82
2022/01/12 14:29:51;;;;;;;43.58;15.50;;;;;;;;;;5043806;28;20583;-81
2022/01/12 14:32:17;;;;;;;41.40;15.52;;;;;;;;;;5026892;28;20040;-82
2022/01/12 14:34:43;;;;;;;41.25;11.95;;;;;;;;;;5045173;28;20059;-82
2022/01/12 14:37:10;;;;;;;44.38;16.15;;;;;;;;;;5043354;28;20040;-82
2022/01/12 14:39:36;;;;;;;42.38;15.65;;;;;;;;;;5044687;28;20059;-82
2022/01/12 14:42:02;;;;;;;34.00;13.63;;;;;;;;;;5044711;28;20532;-82
2022/01/12 14:44:33;;;;;;;48.60;16.48;;;;;;;;;;5024306;28;20052;-82
2022/01/12 14:47:00;;;;;;;43.47;16.08;;;;;;;;;;5026255;28;20071;-81
2022/01/12 14:49:26;;;;;;;53.67;18.67;;;;;;;;;;5025793;28;20572;-82
2022/01/12 14:51:52;;;;;;;57.78;17.27;;;;;;;;;;5043711;28;20513;-81
2022/01/12 14:54:22;;;;;;;43.85;14.25;;;;;;;;;;5043779;28;20080;-83
2022/01/12 14:56:48;;;;;;;50.85;17.55;;;;;;;;;;5042763;28;20036;-83
2022/01/12 14:59:14;;;;;;;41.35;16.83;;;;;;;;;;5026083;28;20041;-81
2022/01/12 15:01:41;;;;;;;41.40;16.27;;;;;;;;;;5025989;28;20041;-81
2022/01/12 15:04:07;;;;;;;36.85;13.88;;;;;;;;;;5044597;28;20544;-83
2022/01/12 15:06:33;;;;;;;42.45;15.30;;;;;;;;;;5045508;28;20048;-80
2022/01/12 15:09:00;;;;;;;47.00;16.10;;;;;;;;;;5043999;28;20045;-81
2022/01/12 15:11:26;;;;;;;37.67;14.93;;;;;;;;;;5028619;28;20068;-84
2022/01/12 15:13:58;;;;;;;44.63;16.42;;;;;;;;;;5035986;28;20041;-84
2022/01/12 15:16:24;;;;;;;34.15;16.35;;;;;;;;;;5042169;28;20047;-82
2022/01/12 15:18:51;;;;;;;37.78;15.25;;;;;;;;;;5042925;28;20144;-82
2022/01/12 15:21:17;;;;;;;42.13;16.40;;;;;;;;;;5026025;28;20045;-81
2022/01/12 15:23:46;;;;;;;41.55;15.20;;;;;;;;;;5043588;28;20041;-82
2022/01/12 15:26:12;;;;;;;35.58;15.48;;;;;;;;;;5041508;28;20977;-83
2022/01/12 15:28:39;;;;;;;31.77;13.73;;;;;;;;;;5043007;28;20098;-84
2022/01/12 15:31:05;;;;;;;37.50;13.75;;;;;;;;;;5027142;28;20084;-82
2022/01/12 15:33:31;;;;;;;38.80;15.60;;;;;;;;;;5024897;28;20036;-82
2022/01/12 15:35:57;;;;;;;42.00;15.27;;;;;;;;;;5009116;28;20048;-81
2022/01/12 15:38:23;;;;;;;42.17;15.32;;;;;;;;;;5042957;28;20073;-81
2022/01/12 15:40:49;;;;;;;39.97;16.02;;;;;;;;;;5043343;28;20052;-80